sensor_id;sensor_type;location;lat;lon;timestamp;temperature;humidity
4487;DHT22;2256;48.740;9.106;2024-01-30T00:01:54;5.20;99.90
4487;DHT22;2256;48.740;9.106;2024-01-30T00:04:21;5.20;99.90
4487;DHT22;2256;48.740;9.106;2024-01-30T00:06:51;5.20;99.90
4487;DHT22;2256;48.740;9.106;2024-01-30T00:09:18;5.20;99.90
4487;DHT22;2256;48.740;9.106;2024-01-30T00:11:45;5.00;99.90
4487;DHT22;2256;48.740;9.106;2024-01-30T00:14:12;5.10;99.90
4487;DHT22;2256;48.740;9.106;2024-01-30T00:16:39;5.10;99.90
4487;DHT22;2256;48.740;9.106;2024-01-30T00:19:06;5.00;99.90
4487;DHT22;2256;48.740;9.106;2024-01-30T00:21:35;5.10;99.90
4487;DHT22;2256;48.740;9.106;2024-01-30T00:24:04;5.00;99.90
4487;DHT22;2256;48.740;9.106;2024-01-30T00:26:39;5.00;99.90
4487;DHT22;2256;48.740;9.106;2024-01-30T00:29:05;5.10;99.90
4487;DHT22;2256;48.740;9.106;2024-01-30T00:31:33;5.10;99.90
4487;DHT22;2256;48.740;9.106;2024-01-30T00:34:31;5.10;99.90
4487;DHT22;2256;48.740;9.106;2024-01-30T00:36:59;5.10;99.90
4487;DHT22;2256;48.740;9.106;2024-01-30T00:39:34;5.00;99.90
4487;DHT22;2256;48.740;9.106;2024-01-30T00:42:01;5.10;99.90
4487;DHT22;2256;48.740;9.106;2024-01-30T00:44:28;5.10;99.90
4487;DHT22;2256;48.740;9.106;2024-01-30T00:46:54;5.30;99.90
4487;DHT22;2256;48.740;9.106;2024-01-30T00:49:21;5.30;99.90
4487;DHT22;2256;48.740;9.106;2024-01-30T00:51:48;5.30;99.90
4487;DHT22;2256;48.740;9.106;2024-01-30T00:54:15;5.30;99.90
4487;DHT22;2256;48.740;9.106;2024-01-30T00:56:44;5.30;99.90
4487;DHT22;2256;48.740;9.106;2024-01-30T00:59:12;5.30;99.90
4487;DHT22;2256;48.740;9.106;2024-01-30T01:01:41;5.30;99.90
4487;DHT22;2256;48.740;9.106;2024-01-30T01:04:08;5.30;99.90
4487;DHT22;2256;48.740;9.106;2024-01-30T01:06:35;5.40;99.90
4487;DHT22;2256;48.740;9.106;2024-01-30T01:09:03;5.40;99.90
4487;DHT22;2256;48.740;9.106;2024-01-30T01:11:30;5.40;99.90
4487;DHT22;2256;48.740;9.106;2024-01-30T01:13:58;5.30;99.90
4487;DHT22;2256;48.740;9.106;2024-01-30T01:16:25;5.30;99.90
4487;DHT22;2256;48.740;9.106;2024-01-30T01:18:51;5.30;99.90
4487;DHT22;2256;48.740;9.106;2024-01-30T01:21:18;5.40;99.90
4487;DHT22;2256;48.740;9.106;2024-01-30T01:23:45;5.40;99.90
4487;DHT22;2256;48.740;9.106;2024-01-30T01:26:12;5.40;99.90
4487;DHT22;2256;48.740;9.106;2024-01-30T01:28:40;5.20;99.90
4487;DHT22;2256;48.740;9.106;2024-01-30T01:31:08;5.10;99.90
4487;DHT22;2256;48.740;9.106;2024-01-30T01:33:35;5.00;99.90
4487;DHT22;2256;48.740;9.106;2024-01-30T01:36:03;5.10;99.90
4487;DHT22;2256;48.740;9.106;2024-01-30T01:38:30;5.10;99.90
4487;DHT22;2256;48.740;9.106;2024-01-30T01:40:58;5.10;99.90
4487;DHT22;2256;48.740;9.106;2024-01-30T01:43:25;5.10;99.90
4487;DHT22;2256;48.740;9.106;2024-01-30T01:45:52;5.20;99.90
4487;DHT22;2256;48.740;9.106;2024-01-30T01:48:20;5.20;99.90
4487;DHT22;2256;48.740;9.106;2024-01-30T01:50:47;5.20;99.90
4487;DHT22;2256;48.740;9.106;2024-01-30T01:53:15;5.20;99.90
4487;DHT22;2256;48.740;9.106;2024-01-30T01:55:42;5.30;99.90
4487;DHT22;2256;48.740;9.106;2024-01-30T01:58:09;5.30;99.90
4487;DHT22;2256;48.740;9.106;2024-01-30T02:00:38;5.20;99.90
4487;DHT22;2256;48.740;9.106;2024-01-30T02:03:08;5.00;99.90
4487;DHT22;2256;48.740;9.106;2024-01-30T02:05:38;5.00;99.90
4487;DHT22;2256;48.740;9.106;2024-01-30T02:08:05;5.00;99.90
4487;DHT22;2256;48.740;9.106;2024-01-30T02:10:34;4.90;99.90
4487;DHT22;2256;48.740;9.106;2024-01-30T02:13:00;4.90;99.90
4487;DHT22;2256;48.740;9.106;2024-01-30T02:15:28;4.90;99.90
4487;DHT22;2256;48.740;9.106;2024-01-30T02:17:56;4.80;99.90
4487;DHT22;2256;48.740;9.106;2024-01-30T02:20:25;4.80;99.90
4487;DHT22;2256;48.740;9.106;2024-01-30T02:22:54;4.80;99.90
4487;DHT22;2256;48.740;9.106;2024-01-30T02:25:30;4.70;99.90
4487;DHT22;2256;48.740;9.106;2024-01-30T02:27:57;4.80;99.90
4487;DHT22;2256;48.740;9.106;2024-01-30T02:30:24;4.80;99.90
4487;DHT22;2256;48.740;9.106;2024-01-30T02:32:51;4.70;99.90
4487;DHT22;2256;48.740;9.106;2024-01-30T02:35:19;4.70;99.90
4487;DHT22;2256;48.740;9.106;2024-01-30T02:37:45;4.60;99.90
4487;DHT22;2256;48.740;9.106;2024-01-30T02:40:14;4.60;99.90
4487;DHT22;2256;48.740;9.106;2024-01-30T02:42:41;4.50;99.90
4487;DHT22;2256;48.740;9.106;2024-01-30T02:45:09;4.40;99.90
4487;DHT22;2256;48.740;9.106;2024-01-30T02:47:36;4.40;99.90
4487;DHT22;2256;48.740;9.106;2024-01-30T02:50:03;4.20;99.90
4487;DHT22;2256;48.740;9.106;2024-01-30T02:52:30;4.20;99.90
4487;DHT22;2256;48.740;9.106;2024-01-30T02:54:57;4.10;99.90
4487;DHT22;2256;48.740;9.106;2024-01-30T02:57:26;4.00;99.90
4487;DHT22;2256;48.740;9.106;2024-01-30T02:59:53;3.80;99.90
4487;DHT22;2256;48.740;9.106;2024-01-30T03:02:20;3.70;99.90
4487;DHT22;2256;48.740;9.106;2024-01-30T03:04:47;3.80;99.90
4487;DHT22;2256;48.740;9.106;2024-01-30T03:07:14;3.80;99.90
4487;DHT22;2256;48.740;9.106;2024-01-30T03:09:41;3.90;99.90
4487;DHT22;2256;48.740;9.106;2024-01-30T03:12:09;3.80;99.90
4487;DHT22;2256;48.740;9.106;2024-01-30T03:14:37;3.70;99.90
4487;DHT22;2256;48.740;9.106;2024-01-30T03:17:04;3.60;99.90
4487;DHT22;2256;48.740;9.106;2024-01-30T03:19:31;3.50;99.90
4487;DHT22;2256;48.740;9.106;2024-01-30T03:21:58;3.50;99.90
4487;DHT22;2256;48.740;9.106;2024-01-30T03:24:24;3.50;99.90
4487;DHT22;2256;48.740;9.106;2024-01-30T03:26:57;3.50;99.90
4487;DHT22;2256;48.740;9.106;2024-01-30T03:29:24;3.60;99.90
4487;DHT22;2256;48.740;9.106;2024-01-30T03:31:52;3.50;99.90
4487;DHT22;2256;48.740;9.106;2024-01-30T03:34:20;3.40;99.90
4487;DHT22;2256;48.740;9.106;2024-01-30T03:36:46;3.40;99.90
4487;DHT22;2256;48.740;9.106;2024-01-30T03:39:13;3.50;99.90
4487;DHT22;2256;48.740;9.106;2024-01-30T03:41:42;3.50;99.90
4487;DHT22;2256;48.740;9.106;2024-01-30T03:44:10;3.50;99.90
4487;DHT22;2256;48.740;9.106;2024-01-30T03:46:36;3.50;99.90
4487;DHT22;2256;48.740;9.106;2024-01-30T03:49:04;3.50;99.90
4487;DHT22;2256;48.740;9.106;2024-01-30T03:51:31;3.70;99.90
4487;DHT22;2256;48.740;9.106;2024-01-30T03:53:58;3.50;99.90
4487;DHT22;2256;48.740;9.106;2024-01-30T03:56:25;3.60;99.90
4487;DHT22;2256;48.740;9.106;2024-01-30T03:58:51;3.60;99.90
4487;DHT22;2256;48.740;9.106;2024-01-30T04:01:18;3.60;99.90
4487;DHT22;2256;48.740;9.106;2024-01-30T04:03:46;3.60;99.90
4487;DHT22;2256;48.740;9.106;2024-01-30T04:06:14;3.70;99.90
4487;DHT22;2256;48.740;9.106;2024-01-30T04:08:42;3.70;99.90
4487;DHT22;2256;48.740;9.106;2024-01-30T04:11:09;3.70;99.90
4487;DHT22;2256;48.740;9.106;2024-01-30T04:13:36;3.60;99.90
4487;DHT22;2256;48.740;9.106;2024-01-30T04:16:03;3.60;99.90
4487;DHT22;2256;48.740;9.106;2024-01-30T04:18:30;3.50;99.90
4487;DHT22;2256;48.740;9.106;2024-01-30T04:20:57;3.40;99.90
4487;DHT22;2256;48.740;9.106;2024-01-30T04:23:27;3.30;99.90
4487;DHT22;2256;48.740;9.106;2024-01-30T04:25:54;3.20;99.90
4487;DHT22;2256;48.740;9.106;2024-01-30T04:28:21;3.10;99.90
4487;DHT22;2256;48.740;9.106;2024-01-30T04:30:48;3.10;99.90
4487;DHT22;2256;48.740;9.106;2024-01-30T04:33:14;3.20;99.90
4487;DHT22;2256;48.740;9.106;2024-01-30T04:35:43;3.10;99.90
4487;DHT22;2256;48.740;9.106;2024-01-30T04:38:10;3.20;99.90
4487;DHT22;2256;48.740;9.106;2024-01-30T04:40:38;3.10;99.90
4487;DHT22;2256;48.740;9.106;2024-01-30T04:43:05;3.10;99.90
4487;DHT22;2256;48.740;9.106;2024-01-30T04:45:32;3.10;99.90
4487;DHT22;2256;48.740;9.106;2024-01-30T04:47:58;3.00;99.90
4487;DHT22;2256;48.740;9.106;2024-01-30T04:50:25;2.90;99.90
4487;DHT22;2256;48.740;9.106;2024-01-30T04:52:52;2.90;99.90
4487;DHT22;2256;48.740;9.106;2024-01-30T04:55:20;2.80;99.90
4487;DHT22;2256;48.740;9.106;2024-01-30T04:57:48;2.80;99.90
4487;DHT22;2256;48.740;9.106;2024-01-30T05:00:16;2.80;99.90
4487;DHT22;2256;48.740;9.106;2024-01-30T05:02:43;2.70;99.90
4487;DHT22;2256;48.740;9.106;2024-01-30T05:05:09;2.70;99.90
4487;DHT22;2256;48.740;9.106;2024-01-30T05:07:38;2.70;99.90
4487;DHT22;2256;48.740;9.106;2024-01-30T05:10:05;2.70;99.90
4487;DHT22;2256;48.740;9.106;2024-01-30T05:12:31;2.70;99.90
4487;DHT22;2256;48.740;9.106;2024-01-30T05:14:59;2.60;99.90
4487;DHT22;2256;48.740;9.106;2024-01-30T05:17:27;2.60;99.90
4487;DHT22;2256;48.740;9.106;2024-01-30T05:19:54;2.60;99.90
4487;DHT22;2256;48.740;9.106;2024-01-30T05:22:21;2.60;99.90
4487;DHT22;2256;48.740;9.106;2024-01-30T05:24:48;2.70;99.90
4487;DHT22;2256;48.740;9.106;2024-01-30T05:27:14;2.70;99.90
4487;DHT22;2256;48.740;9.106;2024-01-30T05:29:41;2.70;99.90
4487;DHT22;2256;48.740;9.106;2024-01-30T05:32:09;2.70;99.90
4487;DHT22;2256;48.740;9.106;2024-01-30T05:34:37;2.80;99.90
4487;DHT22;2256;48.740;9.106;2024-01-30T05:37:03;2.80;99.90
4487;DHT22;2256;48.740;9.106;2024-01-30T05:39:31;2.90;99.90
4487;DHT22;2256;48.740;9.106;2024-01-30T05:41:58;3.00;99.90
4487;DHT22;2256;48.740;9.106;2024-01-30T05:44:25;3.10;99.90
4487;DHT22;2256;48.740;9.106;2024-01-30T05:46:52;3.20;99.90
4487;DHT22;2256;48.740;9.106;2024-01-30T05:49:20;3.20;99.90
4487;DHT22;2256;48.740;9.106;2024-01-30T05:51:47;3.20;99.90
4487;DHT22;2256;48.740;9.106;2024-01-30T05:54:14;3.10;99.90
4487;DHT22;2256;48.740;9.106;2024-01-30T05:56:40;3.10;99.90
4487;DHT22;2256;48.740;9.106;2024-01-30T05:59:07;3.10;99.90
4487;DHT22;2256;48.740;9.106;2024-01-30T06:01:34;3.10;99.90
4487;DHT22;2256;48.740;9.106;2024-01-30T06:04:01;3.10;99.90
4487;DHT22;2256;48.740;9.106;2024-01-30T06:06:29;3.10;99.90
4487;DHT22;2256;48.740;9.106;2024-01-30T06:08:56;3.00;99.90
4487;DHT22;2256;48.740;9.106;2024-01-30T06:11:23;2.90;99.90
4487;DHT22;2256;48.740;9.106;2024-01-30T06:13:50;2.90;99.90
4487;DHT22;2256;48.740;9.106;2024-01-30T06:16:16;2.80;99.90
4487;DHT22;2256;48.740;9.106;2024-01-30T06:18:45;2.80;99.90
4487;DHT22;2256;48.740;9.106;2024-01-30T06:21:12;2.70;99.90
4487;DHT22;2256;48.740;9.106;2024-01-30T06:23:40;2.60;99.90
4487;DHT22;2256;48.740;9.106;2024-01-30T06:26:07;2.60;99.90
4487;DHT22;2256;48.740;9.106;2024-01-30T06:28:33;2.60;99.90
4487;DHT22;2256;48.740;9.106;2024-01-30T06:31:01;2.60;99.90
4487;DHT22;2256;48.740;9.106;2024-01-30T06:33:28;2.60;99.90
4487;DHT22;2256;48.740;9.106;2024-01-30T06:35:54;2.60;99.90
4487;DHT22;2256;48.740;9.106;2024-01-30T06:38:21;2.70;99.90
4487;DHT22;2256;48.740;9.106;2024-01-30T06:40:49;2.70;99.90
4487;DHT22;2256;48.740;9.106;2024-01-30T06:43:17;2.70;99.90
4487;DHT22;2256;48.740;9.106;2024-01-30T06:45:45;2.70;99.90
4487;DHT22;2256;48.740;9.106;2024-01-30T06:48:12;2.70;99.90
4487;DHT22;2256;48.740;9.106;2024-01-30T06:50:39;2.80;99.90
4487;DHT22;2256;48.740;9.106;2024-01-30T06:53:05;2.90;99.90
4487;DHT22;2256;48.740;9.106;2024-01-30T06:55:32;2.90;99.90
4487;DHT22;2256;48.740;9.106;2024-01-30T06:58:00;3.00;99.90
4487;DHT22;2256;48.740;9.106;2024-01-30T07:00:27;3.00;99.90
4487;DHT22;2256;48.740;9.106;2024-01-30T07:02:54;3.10;99.90
4487;DHT22;2256;48.740;9.106;2024-01-30T07:05:20;3.20;99.90
4487;DHT22;2256;48.740;9.106;2024-01-30T07:07:53;3.20;99.90
4487;DHT22;2256;48.740;9.106;2024-01-30T07:10:23;3.20;99.90
4487;DHT22;2256;48.740;9.106;2024-01-30T07:12:50;3.40;99.90
4487;DHT22;2256;48.740;9.106;2024-01-30T07:15:18;3.50;99.90
4487;DHT22;2256;48.740;9.106;2024-01-30T07:17:46;3.60;99.90
4487;DHT22;2256;48.740;9.106;2024-01-30T07:20:13;3.80;99.90
4487;DHT22;2256;48.740;9.106;2024-01-30T07:22:40;4.00;99.90
4487;DHT22;2256;48.740;9.106;2024-01-30T07:25:07;4.00;99.90
4487;DHT22;2256;48.740;9.106;2024-01-30T07:27:34;4.10;99.90
4487;DHT22;2256;48.740;9.106;2024-01-30T07:30:02;4.20;99.90
4487;DHT22;2256;48.740;9.106;2024-01-30T07:32:31;4.20;99.90
4487;DHT22;2256;48.740;9.106;2024-01-30T07:34:58;4.30;99.90
4487;DHT22;2256;48.740;9.106;2024-01-30T07:37:25;4.50;99.90
4487;DHT22;2256;48.740;9.106;2024-01-30T07:39:52;4.60;99.90
4487;DHT22;2256;48.740;9.106;2024-01-30T07:42:21;4.80;99.90
4487;DHT22;2256;48.740;9.106;2024-01-30T07:44:48;4.90;99.90
4487;DHT22;2256;48.740;9.106;2024-01-30T07:47:15;5.10;99.90
4487;DHT22;2256;48.740;9.106;2024-01-30T07:49:43;5.20;99.90
4487;DHT22;2256;48.740;9.106;2024-01-30T07:52:10;5.30;99.90
4487;DHT22;2256;48.740;9.106;2024-01-30T07:54:39;5.40;99.90
4487;DHT22;2256;48.740;9.106;2024-01-30T07:57:05;5.60;99.90
4487;DHT22;2256;48.740;9.106;2024-01-30T07:59:32;5.70;99.90
4487;DHT22;2256;48.740;9.106;2024-01-30T08:01:59;5.70;99.90
4487;DHT22;2256;48.740;9.106;2024-01-30T08:04:26;6.10;99.90
4487;DHT22;2256;48.740;9.106;2024-01-30T08:06:54;6.20;99.90
4487;DHT22;2256;48.740;9.106;2024-01-30T08:09:21;6.30;99.90
4487;DHT22;2256;48.740;9.106;2024-01-30T08:11:48;6.50;99.90
4487;DHT22;2256;48.740;9.106;2024-01-30T08:14:15;6.50;99.90
4487;DHT22;2256;48.740;9.106;2024-01-30T08:16:42;6.70;99.90
4487;DHT22;2256;48.740;9.106;2024-01-30T08:19:09;6.80;99.90
4487;DHT22;2256;48.740;9.106;2024-01-30T08:21:36;7.00;99.90
4487;DHT22;2256;48.740;9.106;2024-01-30T08:24:05;7.10;99.90
4487;DHT22;2256;48.740;9.106;2024-01-30T08:26:32;7.30;99.90
4487;DHT22;2256;48.740;9.106;2024-01-30T08:28:59;7.50;99.90
4487;DHT22;2256;48.740;9.106;2024-01-30T08:31:26;7.70;99.90
4487;DHT22;2256;48.740;9.106;2024-01-30T08:33:53;8.00;99.90
4487;DHT22;2256;48.740;9.106;2024-01-30T08:36:20;8.20;99.90
4487;DHT22;2256;48.740;9.106;2024-01-30T08:38:47;8.40;99.90
4487;DHT22;2256;48.740;9.106;2024-01-30T08:41:16;8.70;99.90
4487;DHT22;2256;48.740;9.106;2024-01-30T08:43:43;9.10;99.90
4487;DHT22;2256;48.740;9.106;2024-01-30T08:46:10;9.30;99.90
4487;DHT22;2256;48.740;9.106;2024-01-30T08:48:37;9.50;99.90
4487;DHT22;2256;48.740;9.106;2024-01-30T08:51:04;9.80;99.90
4487;DHT22;2256;48.740;9.106;2024-01-30T08:53:34;10.00;98.70
4487;DHT22;2256;48.740;9.106;2024-01-30T08:56:01;10.30;98.30
4487;DHT22;2256;48.740;9.106;2024-01-30T08:58:29;10.90;97.70
4487;DHT22;2256;48.740;9.106;2024-01-30T09:00:56;11.30;97.10
4487;DHT22;2256;48.740;9.106;2024-01-30T09:03:23;11.70;96.40
4487;DHT22;2256;48.740;9.106;2024-01-30T09:05:49;12.10;95.80
4487;DHT22;2256;48.740;9.106;2024-01-30T09:08:16;12.20;95.40
4487;DHT22;2256;48.740;9.106;2024-01-30T09:10:43;12.70;95.10
4487;DHT22;2256;48.740;9.106;2024-01-30T09:13:10;13.90;94.20
4487;DHT22;2256;48.740;9.106;2024-01-30T09:15:38;15.10;92.90
4487;DHT22;2256;48.740;9.106;2024-01-30T09:18:06;15.50;91.80
4487;DHT22;2256;48.740;9.106;2024-01-30T09:20:32;15.70;91.00
4487;DHT22;2256;48.740;9.106;2024-01-30T09:22:59;15.90;90.70
4487;DHT22;2256;48.740;9.106;2024-01-30T09:25:26;15.90;90.00
4487;DHT22;2256;48.740;9.106;2024-01-30T09:27:54;16.10;90.10
4487;DHT22;2256;48.740;9.106;2024-01-30T09:30:21;16.50;89.40
4487;DHT22;2256;48.740;9.106;2024-01-30T09:32:49;17.20;87.30
4487;DHT22;2256;48.740;9.106;2024-01-30T09:35:16;17.70;86.20
4487;DHT22;2256;48.740;9.106;2024-01-30T09:37:42;17.30;84.90
4487;DHT22;2256;48.740;9.106;2024-01-30T09:40:09;16.60;85.70
4487;DHT22;2256;48.740;9.106;2024-01-30T09:42:36;16.10;86.40
4487;DHT22;2256;48.740;9.106;2024-01-30T09:45:04;15.70;87.20
4487;DHT22;2256;48.740;9.106;2024-01-30T09:47:32;15.40;88.30
4487;DHT22;2256;48.740;9.106;2024-01-30T09:50:01;15.20;87.70
4487;DHT22;2256;48.740;9.106;2024-01-30T09:52:29;14.90;88.00
4487;DHT22;2256;48.740;9.106;2024-01-30T09:54:56;14.80;88.20
4487;DHT22;2256;48.740;9.106;2024-01-30T09:57:25;14.60;88.20
4487;DHT22;2256;48.740;9.106;2024-01-30T09:59:52;14.50;89.10
4487;DHT22;2256;48.740;9.106;2024-01-30T10:02:20;14.30;89.50
4487;DHT22;2256;48.740;9.106;2024-01-30T10:04:48;14.20;90.00
4487;DHT22;2256;48.740;9.106;2024-01-30T10:07:17;14.00;90.40
4487;DHT22;2256;48.740;9.106;2024-01-30T10:09:44;13.80;90.40
4487;DHT22;2256;48.740;9.106;2024-01-30T10:12:11;13.60;90.40
4487;DHT22;2256;48.740;9.106;2024-01-30T10:14:38;13.40;90.50
4487;DHT22;2256;48.740;9.106;2024-01-30T10:17:07;13.30;91.00
4487;DHT22;2256;48.740;9.106;2024-01-30T10:19:34;13.10;91.00
4487;DHT22;2256;48.740;9.106;2024-01-30T10:22:01;12.90;91.30
4487;DHT22;2256;48.740;9.106;2024-01-30T10:24:29;12.90;91.60
4487;DHT22;2256;48.740;9.106;2024-01-30T10:26:56;12.90;91.60
4487;DHT22;2256;48.740;9.106;2024-01-30T10:29:24;12.80;91.90
4487;DHT22;2256;48.740;9.106;2024-01-30T10:32:00;12.70;91.90
4487;DHT22;2256;48.740;9.106;2024-01-30T10:34:28;12.80;92.10
4487;DHT22;2256;48.740;9.106;2024-01-30T10:37:00;12.70;92.00
4487;DHT22;2256;48.740;9.106;2024-01-30T10:39:38;12.60;92.20
4487;DHT22;2256;48.740;9.106;2024-01-30T10:42:06;12.50;92.50
4487;DHT22;2256;48.740;9.106;2024-01-30T10:44:37;12.50;92.50
4487;DHT22;2256;48.740;9.106;2024-01-30T10:47:12;12.60;92.50
4487;DHT22;2256;48.740;9.106;2024-01-30T10:49:39;12.40;92.60
4487;DHT22;2256;48.740;9.106;2024-01-30T10:52:08;12.40;92.80
4487;DHT22;2256;48.740;9.106;2024-01-30T10:54:37;12.50;92.70
4487;DHT22;2256;48.740;9.106;2024-01-30T10:57:05;12.50;92.70
4487;DHT22;2256;48.740;9.106;2024-01-30T10:59:33;12.50;92.80
4487;DHT22;2256;48.740;9.106;2024-01-30T11:02:00;12.50;93.00
4487;DHT22;2256;48.740;9.106;2024-01-30T11:04:27;12.50;93.00
4487;DHT22;2256;48.740;9.106;2024-01-30T11:06:54;12.50;93.00
4487;DHT22;2256;48.740;9.106;2024-01-30T11:09:21;12.50;93.10
4487;DHT22;2256;48.740;9.106;2024-01-30T11:11:56;12.50;93.10
4487;DHT22;2256;48.740;9.106;2024-01-30T11:14:25;12.60;93.20
4487;DHT22;2256;48.740;9.106;2024-01-30T11:16:52;12.60;92.90
4487;DHT22;2256;48.740;9.106;2024-01-30T11:19:23;12.70;92.90
4487;DHT22;2256;48.740;9.106;2024-01-30T11:21:51;12.70;92.80
4487;DHT22;2256;48.740;9.106;2024-01-30T11:24:20;12.70;92.80
4487;DHT22;2256;48.740;9.106;2024-01-30T11:26:48;12.80;92.90
4487;DHT22;2256;48.740;9.106;2024-01-30T11:29:17;12.70;92.90
4487;DHT22;2256;48.740;9.106;2024-01-30T11:31:52;12.80;93.00
4487;DHT22;2256;48.740;9.106;2024-01-30T11:34:20;12.70;93.10
4487;DHT22;2256;48.740;9.106;2024-01-30T11:36:51;12.70;93.10
4487;DHT22;2256;48.740;9.106;2024-01-30T11:39:20;12.70;93.20
4487;DHT22;2256;48.740;9.106;2024-01-30T11:41:49;12.70;93.40
4487;DHT22;2256;48.740;9.106;2024-01-30T11:44:18;12.80;93.40
4487;DHT22;2256;48.740;9.106;2024-01-30T11:46:46;12.90;93.30
4487;DHT22;2256;48.740;9.106;2024-01-30T11:49:13;12.90;93.10
4487;DHT22;2256;48.740;9.106;2024-01-30T11:51:40;12.90;93.10
4487;DHT22;2256;48.740;9.106;2024-01-30T11:54:07;13.00;93.00
4487;DHT22;2256;48.740;9.106;2024-01-30T11:56:34;13.10;93.20
4487;DHT22;2256;48.740;9.106;2024-01-30T11:59:01;13.20;93.00
4487;DHT22;2256;48.740;9.106;2024-01-30T12:01:29;13.20;93.10
4487;DHT22;2256;48.740;9.106;2024-01-30T12:03:57;13.20;93.20
4487;DHT22;2256;48.740;9.106;2024-01-30T12:06:24;13.30;93.20
4487;DHT22;2256;48.740;9.106;2024-01-30T12:08:58;13.20;92.90
4487;DHT22;2256;48.740;9.106;2024-01-30T12:11:25;13.20;93.00
4487;DHT22;2256;48.740;9.106;2024-01-30T12:13:53;13.20;93.00
4487;DHT22;2256;48.740;9.106;2024-01-30T12:16:20;13.30;93.00
4487;DHT22;2256;48.740;9.106;2024-01-30T12:18:48;13.30;92.90
4487;DHT22;2256;48.740;9.106;2024-01-30T12:21:16;13.30;93.00
4487;DHT22;2256;48.740;9.106;2024-01-30T12:23:43;13.40;92.90
4487;DHT22;2256;48.740;9.106;2024-01-30T12:26:11;13.50;93.00
4487;DHT22;2256;48.740;9.106;2024-01-30T12:28:48;13.40;93.00
4487;DHT22;2256;48.740;9.106;2024-01-30T12:31:15;13.40;92.90
4487;DHT22;2256;48.740;9.106;2024-01-30T12:33:42;13.40;92.90
4487;DHT22;2256;48.740;9.106;2024-01-30T12:36:11;13.50;92.90
4487;DHT22;2256;48.740;9.106;2024-01-30T12:38:38;13.70;92.80
4487;DHT22;2256;48.740;9.106;2024-01-30T12:41:07;13.70;92.70
4487;DHT22;2256;48.740;9.106;2024-01-30T12:43:35;13.80;92.60
4487;DHT22;2256;48.740;9.106;2024-01-30T12:46:03;13.90;92.70
4487;DHT22;2256;48.740;9.106;2024-01-30T12:48:29;13.90;92.60
4487;DHT22;2256;48.740;9.106;2024-01-30T12:50:56;14.00;92.50
4487;DHT22;2256;48.740;9.106;2024-01-30T12:53:24;14.00;92.50
4487;DHT22;2256;48.740;9.106;2024-01-30T12:55:51;14.00;92.50
4487;DHT22;2256;48.740;9.106;2024-01-30T12:58:19;14.10;92.30
4487;DHT22;2256;48.740;9.106;2024-01-30T13:00:46;14.00;92.40
4487;DHT22;2256;48.740;9.106;2024-01-30T13:03:13;14.10;92.70
4487;DHT22;2256;48.740;9.106;2024-01-30T13:05:40;14.10;92.50
4487;DHT22;2256;48.740;9.106;2024-01-30T13:08:07;14.20;92.50
4487;DHT22;2256;48.740;9.106;2024-01-30T13:10:35;14.30;92.50
4487;DHT22;2256;48.740;9.106;2024-01-30T13:13:02;14.40;92.20
4487;DHT22;2256;48.740;9.106;2024-01-30T13:15:29;14.60;92.00
4487;DHT22;2256;48.740;9.106;2024-01-30T13:17:56;14.70;91.70
4487;DHT22;2256;48.740;9.106;2024-01-30T13:20:23;14.80;92.00
4487;DHT22;2256;48.740;9.106;2024-01-30T13:22:50;14.90;91.70
4487;DHT22;2256;48.740;9.106;2024-01-30T13:25:16;15.00;91.70
4487;DHT22;2256;48.740;9.106;2024-01-30T13:27:45;15.00;91.60
4487;DHT22;2256;48.740;9.106;2024-01-30T13:30:12;15.00;91.50
4487;DHT22;2256;48.740;9.106;2024-01-30T13:32:39;15.00;91.30
4487;DHT22;2256;48.740;9.106;2024-01-30T13:35:09;14.90;91.50
4487;DHT22;2256;48.740;9.106;2024-01-30T13:37:36;14.80;91.50
4487;DHT22;2256;48.740;9.106;2024-01-30T13:40:05;14.70;91.70
4487;DHT22;2256;48.740;9.106;2024-01-30T13:42:32;14.70;91.80
4487;DHT22;2256;48.740;9.106;2024-01-30T13:45:01;14.70;91.70
4487;DHT22;2256;48.740;9.106;2024-01-30T13:47:28;14.60;91.70
4487;DHT22;2256;48.740;9.106;2024-01-30T13:49:54;14.60;91.80
4487;DHT22;2256;48.740;9.106;2024-01-30T13:52:21;14.60;91.80
4487;DHT22;2256;48.740;9.106;2024-01-30T13:54:48;14.60;91.70
4487;DHT22;2256;48.740;9.106;2024-01-30T13:57:15;14.60;91.80
4487;DHT22;2256;48.740;9.106;2024-01-30T13:59:42;14.50;91.90
4487;DHT22;2256;48.740;9.106;2024-01-30T14:02:10;14.30;92.00
4487;DHT22;2256;48.740;9.106;2024-01-30T14:04:37;14.30;92.20
4487;DHT22;2256;48.740;9.106;2024-01-30T14:07:04;14.30;91.90
4487;DHT22;2256;48.740;9.106;2024-01-30T14:09:32;14.30;91.90
4487;DHT22;2256;48.740;9.106;2024-01-30T14:11:59;14.30;91.80
4487;DHT22;2256;48.740;9.106;2024-01-30T14:14:26;14.30;91.90
4487;DHT22;2256;48.740;9.106;2024-01-30T14:16:53;14.30;92.00
4487;DHT22;2256;48.740;9.106;2024-01-30T14:19:21;14.20;92.00
4487;DHT22;2256;48.740;9.106;2024-01-30T14:21:48;14.20;92.10
4487;DHT22;2256;48.740;9.106;2024-01-30T14:24:15;14.20;91.90
4487;DHT22;2256;48.740;9.106;2024-01-30T14:26:42;14.20;91.80
4487;DHT22;2256;48.740;9.106;2024-01-30T14:29:09;14.10;92.10
4487;DHT22;2256;48.740;9.106;2024-01-30T14:31:36;14.00;92.20
4487;DHT22;2256;48.740;9.106;2024-01-30T14:34:03;13.90;92.40
4487;DHT22;2256;48.740;9.106;2024-01-30T14:36:31;13.90;92.20
4487;DHT22;2256;48.740;9.106;2024-01-30T14:38:58;13.80;94.20
4487;DHT22;2256;48.740;9.106;2024-01-30T14:41:25;13.90;95.20
4487;DHT22;2256;48.740;9.106;2024-01-30T14:43:51;13.90;95.20
4487;DHT22;2256;48.740;9.106;2024-01-30T14:46:18;13.90;95.20
4487;DHT22;2256;48.740;9.106;2024-01-30T14:48:45;14.00;94.80
4487;DHT22;2256;48.740;9.106;2024-01-30T14:51:12;14.00;94.70
4487;DHT22;2256;48.740;9.106;2024-01-30T14:53:40;14.00;94.70
4487;DHT22;2256;48.740;9.106;2024-01-30T14:56:07;14.00;94.50
4487;DHT22;2256;48.740;9.106;2024-01-30T14:58:35;13.90;94.50
4487;DHT22;2256;48.740;9.106;2024-01-30T15:01:02;14.00;94.90
4487;DHT22;2256;48.740;9.106;2024-01-30T15:03:29;13.90;94.30
4487;DHT22;2256;48.740;9.106;2024-01-30T15:05:56;14.00;94.30
4487;DHT22;2256;48.740;9.106;2024-01-30T15:08:23;13.80;94.40
4487;DHT22;2256;48.740;9.106;2024-01-30T15:10:51;13.80;94.50
4487;DHT22;2256;48.740;9.106;2024-01-30T15:13:19;13.70;93.60
4487;DHT22;2256;48.740;9.106;2024-01-30T15:15:46;13.50;93.20
4487;DHT22;2256;48.740;9.106;2024-01-30T15:18:13;13.40;93.00
4487;DHT22;2256;48.740;9.106;2024-01-30T15:20:39;13.10;93.30
4487;DHT22;2256;48.740;9.106;2024-01-30T15:23:06;12.80;94.30
4487;DHT22;2256;48.740;9.106;2024-01-30T15:25:33;12.40;94.80
4487;DHT22;2256;48.740;9.106;2024-01-30T15:28:01;12.30;94.90
4487;DHT22;2256;48.740;9.106;2024-01-30T15:30:28;12.20;95.20
4487;DHT22;2256;48.740;9.106;2024-01-30T15:32:55;12.00;95.50
4487;DHT22;2256;48.740;9.106;2024-01-30T15:35:22;11.70;95.80
4487;DHT22;2256;48.740;9.106;2024-01-30T15:37:48;11.60;96.30
4487;DHT22;2256;48.740;9.106;2024-01-30T15:40:15;11.50;96.40
4487;DHT22;2256;48.740;9.106;2024-01-30T15:42:42;11.40;96.60
4487;DHT22;2256;48.740;9.106;2024-01-30T15:45:10;11.20;97.00
4487;DHT22;2256;48.740;9.106;2024-01-30T15:47:37;11.10;96.90
4487;DHT22;2256;48.740;9.106;2024-01-30T15:50:05;11.00;97.20
4487;DHT22;2256;48.740;9.106;2024-01-30T15:52:31;10.80;97.50
4487;DHT22;2256;48.740;9.106;2024-01-30T15:54:58;10.60;97.90
4487;DHT22;2256;48.740;9.106;2024-01-30T15:57:25;10.60;97.90
4487;DHT22;2256;48.740;9.106;2024-01-30T15:59:52;10.60;98.10
4487;DHT22;2256;48.740;9.106;2024-01-30T16:02:20;10.50;98.10
4487;DHT22;2256;48.740;9.106;2024-01-30T16:04:47;10.40;98.30
4487;DHT22;2256;48.740;9.106;2024-01-30T16:07:14;10.20;98.80
4487;DHT22;2256;48.740;9.106;2024-01-30T16:09:42;10.00;99.10
4487;DHT22;2256;48.740;9.106;2024-01-30T16:12:09;9.90;99.80